sensor_id;sensor_type;location;lat;lon;timestamp;P1;durP1;ratioP1;P2;durP2;ratioP2
37205;SDS011;23099;42.636;23.198;2022-12-07T00:02:26;22.75;;;9.13;;
37205;SDS011;23099;42.636;23.198;2022-12-07T00:04:53;20.75;;;8.25;;
37205;SDS011;23099;42.636;23.198;2022-12-07T00:07:20;24.75;;;8.70;;
37205;SDS011;23099;42.636;23.198;2022-12-07T00:09:46;17.13;;;5.53;;
37205;SDS011;23099;42.636;23.198;2022-12-07T00:12:13;16.00;;;5.88;;
37205;SDS011;23099;42.636;23.198;2022-12-07T00:14:40;16.70;;;5.20;;
37205;SDS011;23099;42.636;23.198;2022-12-07T00:17:06;14.25;;;5.30;;
37205;SDS011;23099;42.636;23.198;2022-12-07T00:19:34;11.35;;;3.70;;
37205;SDS011;23099;42.636;23.198;2022-12-07T00:22:01;10.32;;;3.60;;
37205;SDS011;23099;42.636;23.198;2022-12-07T00:24:28;16.88;;;3.90;;
37205;SDS011;23099;42.636;23.198;2022-12-07T00:26:54;12.05;;;4.00;;
37205;SDS011;23099;42.636;23.198;2022-12-07T00:29:21;15.77;;;6.20;;
37205;SDS011;23099;42.636;23.198;2022-12-07T00:31:48;9.13;;;2.95;;
37205;SDS011;23099;42.636;23.198;2022-12-07T00:34:16;13.27;;;3.60;;
37205;SDS011;23099;42.636;23.198;2022-12-07T00:36:45;13.23;;;3.33;;
37205;SDS011;23099;42.636;23.198;2022-12-07T00:41:39;13.20;;;4.70;;
37205;SDS011;23099;42.636;23.198;2022-12-07T00:44:05;13.07;;;5.20;;
37205;SDS011;23099;42.636;23.198;2022-12-07T00:46:32;14.30;;;4.97;;
37205;SDS011;23099;42.636;23.198;2022-12-07T00:48:59;21.30;;;7.75;;
37205;SDS011;23099;42.636;23.198;2022-12-07T00:51:26;47.47;;;25.05;;
37205;SDS011;23099;42.636;23.198;2022-12-07T00:53:54;38.42;;;19.50;;
37205;SDS011;23099;42.636;23.198;2022-12-07T00:56:21;34.40;;;16.20;;
37205;SDS011;23099;42.636;23.198;2022-12-07T00:58:49;83.38;;;35.85;;
37205;SDS011;23099;42.636;23.198;2022-12-07T01:01:17;54.92;;;25.67;;
37205;SDS011;23099;42.636;23.198;2022-12-07T01:03:43;56.78;;;26.58;;
37205;SDS011;23099;42.636;23.198;2022-12-07T01:06:13;64.72;;;30.08;;
37205;SDS011;23099;42.636;23.198;2022-12-07T01:08:40;62.80;;;28.95;;
37205;SDS011;23099;42.636;23.198;2022-12-07T01:11:09;62.22;;;29.83;;
37205;SDS011;23099;42.636;23.198;2022-12-07T01:13:38;62.63;;;30.80;;
37205;SDS011;23099;42.636;23.198;2022-12-07T01:16:05;58.13;;;28.73;;
37205;SDS011;23099;42.636;23.198;2022-12-07T01:18:34;58.75;;;28.10;;
37205;SDS011;23099;42.636;23.198;2022-12-07T01:21:02;53.17;;;22.02;;
37205;SDS011;23099;42.636;23.198;2022-12-07T01:23:31;46.50;;;21.13;;
37205;SDS011;23099;42.636;23.198;2022-12-07T01:25:59;35.03;;;15.07;;
37205;SDS011;23099;42.636;23.198;2022-12-07T01:28:28;18.52;;;7.03;;
37205;SDS011;23099;42.636;23.198;2022-12-07T01:30:56;13.65;;;5.68;;
37205;SDS011;23099;42.636;23.198;2022-12-07T01:35:50;14.95;;;4.75;;
37205;SDS011;23099;42.636;23.198;2022-12-07T01:38:17;13.57;;;4.32;;
37205;SDS011;23099;42.636;23.198;2022-12-07T01:40:43;11.05;;;4.05;;
37205;SDS011;23099;42.636;23.198;2022-12-07T01:43:13;10.95;;;4.90;;
37205;SDS011;23099;42.636;23.198;2022-12-07T01:45:44;12.30;;;4.15;;
37205;SDS011;23099;42.636;23.198;2022-12-07T01:48:12;14.50;;;3.90;;
37205;SDS011;23099;42.636;23.198;2022-12-07T01:50:43;11.82;;;3.65;;
37205;SDS011;23099;42.636;23.198;2022-12-07T01:53:14;12.93;;;3.75;;
37205;SDS011;23099;42.636;23.198;2022-12-07T01:55:42;11.00;;;3.70;;
37205;SDS011;23099;42.636;23.198;2022-12-07T01:58:12;15.90;;;6.82;;
37205;SDS011;23099;42.636;23.198;2022-12-07T02:00:41;33.17;;;16.98;;
37205;SDS011;23099;42.636;23.198;2022-12-07T02:03:10;50.33;;;24.77;;
37205;SDS011;23099;42.636;23.198;2022-12-07T02:05:41;53.10;;;27.67;;
37205;SDS011;23099;42.636;23.198;2022-12-07T02:08:09;51.57;;;24.23;;
37205;SDS011;23099;42.636;23.198;2022-12-07T02:10:38;43.72;;;21.83;;
37205;SDS011;23099;42.636;23.198;2022-12-07T02:13:06;52.05;;;24.75;;
37205;SDS011;23099;42.636;23.198;2022-12-07T02:15:53;51.08;;;23.42;;
37205;SDS011;23099;42.636;23.198;2022-12-07T02:18:34;29.58;;;13.02;;
37205;SDS011;23099;42.636;23.198;2022-12-07T02:21:11;32.13;;;14.27;;
37205;SDS011;23099;42.636;23.198;2022-12-07T02:26:55;52.33;;;23.80;;
37205;SDS011;23099;42.636;23.198;2022-12-07T02:29:38;34.50;;;14.80;;
37205;SDS011;23099;42.636;23.198;2022-12-07T02:32:10;41.05;;;19.75;;
37205;SDS011;23099;42.636;23.198;2022-12-07T02:34:44;48.72;;;22.95;;
37205;SDS011;23099;42.636;23.198;2022-12-07T02:37:18;50.28;;;23.55;;
37205;SDS011;23099;42.636;23.198;2022-12-07T02:39:54;48.13;;;22.60;;
37205;SDS011;23099;42.636;23.198;2022-12-07T02:42:26;40.53;;;19.13;;
37205;SDS011;23099;42.636;23.198;2022-12-07T02:44:58;40.80;;;18.88;;
37205;SDS011;23099;42.636;23.198;2022-12-07T02:47:26;32.30;;;14.05;;
37205;SDS011;23099;42.636;23.198;2022-12-07T02:49:55;32.70;;;14.77;;
37205;SDS011;23099;42.636;23.198;2022-12-07T02:52:22;50.75;;;23.73;;
37205;SDS011;23099;42.636;23.198;2022-12-07T02:54:49;46.63;;;23.17;;
37205;SDS011;23099;42.636;23.198;2022-12-07T03:00:10;56.97;;;25.98;;
37205;SDS011;23099;42.636;23.198;2022-12-07T03:02:42;61.03;;;27.13;;
37205;SDS011;23099;42.636;23.198;2022-12-07T03:05:24;57.20;;;22.80;;
37205;SDS011;23099;42.636;23.198;2022-12-07T03:08:11;61.50;;;25.85;;
37205;SDS011;23099;42.636;23.198;2022-12-07T03:10:43;66.47;;;30.10;;
37205;SDS011;23099;42.636;23.198;2022-12-07T03:15:53;57.63;;;26.75;;
37205;SDS011;23099;42.636;23.198;2022-12-07T03:18:25;79.10;;;28.80;;
37205;SDS011;23099;42.636;23.198;2022-12-07T03:20:57;66.05;;;28.95;;
37205;SDS011;23099;42.636;23.198;2022-12-07T03:23:28;62.40;;;27.95;;
37205;SDS011;23099;42.636;23.198;2022-12-07T03:25:58;66.43;;;29.05;;
37205;SDS011;23099;42.636;23.198;2022-12-07T03:28:28;61.67;;;28.77;;
37205;SDS011;23099;42.636;23.198;2022-12-07T03:30:59;66.47;;;29.05;;
37205;SDS011;23099;42.636;23.198;2022-12-07T03:33:31;61.80;;;29.40;;
37205;SDS011;23099;42.636;23.198;2022-12-07T03:36:04;55.92;;;25.35;;
37205;SDS011;23099;42.636;23.198;2022-12-07T03:38:35;63.30;;;27.13;;
37205;SDS011;23099;42.636;23.198;2022-12-07T03:41:06;62.38;;;28.95;;
37205;SDS011;23099;42.636;23.198;2022-12-07T03:43:38;59.45;;;27.40;;
37205;SDS011;23099;42.636;23.198;2022-12-07T03:46:10;54.13;;;25.83;;
37205;SDS011;23099;42.636;23.198;2022-12-07T03:48:49;52.25;;;24.40;;
37205;SDS011;23099;42.636;23.198;2022-12-07T03:51:25;58.00;;;26.20;;
37205;SDS011;23099;42.636;23.198;2022-12-07T03:53:58;82.55;;;34.13;;
37205;SDS011;23099;42.636;23.198;2022-12-07T03:56:29;57.28;;;26.65;;
37205;SDS011;23099;42.636;23.198;2022-12-07T03:58:56;61.17;;;26.92;;
37205;SDS011;23099;42.636;23.198;2022-12-07T04:01:24;55.47;;;26.17;;
37205;SDS011;23099;42.636;23.198;2022-12-07T04:03:51;46.03;;;23.80;;
37205;SDS011;23099;42.636;23.198;2022-12-07T04:06:18;55.38;;;26.20;;
37205;SDS011;23099;42.636;23.198;2022-12-07T04:08:45;71.93;;;31.77;;
37205;SDS011;23099;42.636;23.198;2022-12-07T04:11:13;72.80;;;30.48;;
37205;SDS011;23099;42.636;23.198;2022-12-07T04:13:39;80.28;;;31.05;;
37205;SDS011;23099;42.636;23.198;2022-12-07T04:16:25;97.47;;;36.95;;
37205;SDS011;23099;42.636;23.198;2022-12-07T04:18:52;56.90;;;24.70;;
37205;SDS011;23099;42.636;23.198;2022-12-07T04:21:18;128.98;;;39.47;;
37205;SDS011;23099;42.636;23.198;2022-12-07T04:23:45;92.13;;;37.28;;
37205;SDS011;23099;42.636;23.198;2022-12-07T04:26:12;60.85;;;26.75;;
37205;SDS011;23099;42.636;23.198;2022-12-07T04:28:39;48.83;;;24.75;;
37205;SDS011;23099;42.636;23.198;2022-12-07T04:31:05;63.45;;;29.13;;
37205;SDS011;23099;42.636;23.198;2022-12-07T04:33:33;66.55;;;28.95;;
37205;SDS011;23099;42.636;23.198;2022-12-07T04:36:01;57.08;;;26.20;;
37205;SDS011;23099;42.636;23.198;2022-12-07T04:38:28;51.55;;;26.23;;
37205;SDS011;23099;42.636;23.198;2022-12-07T04:40:55;47.53;;;24.35;;
37205;SDS011;23099;42.636;23.198;2022-12-07T04:43:22;56.40;;;25.63;;
37205;SDS011;23099;42.636;23.198;2022-12-07T04:45:48;42.70;;;19.20;;
37205;SDS011;23099;42.636;23.198;2022-12-07T04:48:16;46.80;;;23.13;;
37205;SDS011;23099;42.636;23.198;2022-12-07T04:50:44;38.05;;;18.55;;
37205;SDS011;23099;42.636;23.198;2022-12-07T04:53:13;28.50;;;14.80;;
37205;SDS011;23099;42.636;23.198;2022-12-07T04:55:40;37.40;;;17.20;;
37205;SDS011;23099;42.636;23.198;2022-12-07T04:58:07;29.33;;;11.13;;
37205;SDS011;23099;42.636;23.198;2022-12-07T05:00:33;23.70;;;8.95;;
37205;SDS011;23099;42.636;23.198;2022-12-07T05:03:00;25.88;;;11.48;;
37205;SDS011;23099;42.636;23.198;2022-12-07T05:05:27;31.05;;;13.55;;
37205;SDS011;23099;42.636;23.198;2022-12-07T05:07:55;44.60;;;22.50;;
37205;SDS011;23099;42.636;23.198;2022-12-07T05:10:22;52.60;;;22.90;;
37205;SDS011;23099;42.636;23.198;2022-12-07T05:12:49;53.92;;;23.23;;
37205;SDS011;23099;42.636;23.198;2022-12-07T05:15:16;56.58;;;25.67;;
37205;SDS011;23099;42.636;23.198;2022-12-07T05:17:43;58.03;;;24.67;;
37205;SDS011;23099;42.636;23.198;2022-12-07T05:20:10;55.60;;;25.63;;
37205;SDS011;23099;42.636;23.198;2022-12-07T05:22:37;61.60;;;25.10;;
37205;SDS011;23099;42.636;23.198;2022-12-07T05:25:06;56.78;;;24.15;;
37205;SDS011;23099;42.636;23.198;2022-12-07T05:27:33;53.72;;;23.90;;
37205;SDS011;23099;42.636;23.198;2022-12-07T05:30:00;43.63;;;20.05;;
37205;SDS011;23099;42.636;23.198;2022-12-07T05:32:26;31.67;;;11.98;;
37205;SDS011;23099;42.636;23.198;2022-12-07T05:34:53;21.67;;;8.30;;
37205;SDS011;23099;42.636;23.198;2022-12-07T05:37:20;18.58;;;7.68;;
37205;SDS011;23099;42.636;23.198;2022-12-07T05:39:47;17.25;;;6.40;;
37205;SDS011;23099;42.636;23.198;2022-12-07T05:42:15;12.60;;;5.40;;
37205;SDS011;23099;42.636;23.198;2022-12-07T05:44:42;14.35;;;5.35;;
37205;SDS011;23099;42.636;23.198;2022-12-07T05:47:10;15.57;;;5.95;;
37205;SDS011;23099;42.636;23.198;2022-12-07T05:49:38;19.23;;;5.20;;
37205;SDS011;23099;42.636;23.198;2022-12-07T05:52:05;13.02;;;5.60;;
37205;SDS011;23099;42.636;23.198;2022-12-07T05:54:32;15.82;;;8.27;;
37205;SDS011;23099;42.636;23.198;2022-12-07T05:56:59;19.75;;;7.72;;
37205;SDS011;23099;42.636;23.198;2022-12-07T05:59:27;15.70;;;5.68;;
37205;SDS011;23099;42.636;23.198;2022-12-07T06:01:54;13.68;;;5.82;;
37205;SDS011;23099;42.636;23.198;2022-12-07T06:04:22;12.80;;;5.40;;
37205;SDS011;23099;42.636;23.198;2022-12-07T06:06:50;20.77;;;6.03;;
37205;SDS011;23099;42.636;23.198;2022-12-07T06:09:18;16.88;;;6.28;;
37205;SDS011;23099;42.636;23.198;2022-12-07T06:11:45;15.13;;;5.47;;
37205;SDS011;23099;42.636;23.198;2022-12-07T06:14:31;14.70;;;6.35;;
37205;SDS011;23099;42.636;23.198;2022-12-07T06:16:58;13.38;;;6.25;;
37205;SDS011;23099;42.636;23.198;2022-12-07T06:19:25;19.73;;;8.15;;
37205;SDS011;23099;42.636;23.198;2022-12-07T06:21:51;28.40;;;11.02;;
37205;SDS011;23099;42.636;23.198;2022-12-07T06:24:18;37.63;;;18.98;;
37205;SDS011;23099;42.636;23.198;2022-12-07T06:26:45;37.92;;;18.88;;
37205;SDS011;23099;42.636;23.198;2022-12-07T06:29:12;42.28;;;19.15;;
37205;SDS011;23099;42.636;23.198;2022-12-07T06:31:41;37.53;;;17.02;;
37205;SDS011;23099;42.636;23.198;2022-12-07T06:34:09;52.58;;;23.80;;
37205;SDS011;23099;42.636;23.198;2022-12-07T06:36:37;44.33;;;21.98;;
37205;SDS011;23099;42.636;23.198;2022-12-07T06:39:03;41.80;;;20.90;;
37205;SDS011;23099;42.636;23.198;2022-12-07T06:41:31;54.10;;;24.67;;
37205;SDS011;23099;42.636;23.198;2022-12-07T06:43:58;50.38;;;23.23;;
37205;SDS011;23099;42.636;23.198;2022-12-07T06:46:25;52.95;;;23.98;;
37205;SDS011;23099;42.636;23.198;2022-12-07T06:48:53;49.75;;;24.27;;
37205;SDS011;23099;42.636;23.198;2022-12-07T06:51:20;44.80;;;20.85;;
37205;SDS011;23099;42.636;23.198;2022-12-07T06:53:46;48.17;;;23.27;;
37205;SDS011;23099;42.636;23.198;2022-12-07T06:56:13;49.72;;;24.27;;
37205;SDS011;23099;42.636;23.198;2022-12-07T06:58:40;41.92;;;19.83;;
37205;SDS011;23099;42.636;23.198;2022-12-07T07:01:08;61.95;;;29.73;;
37205;SDS011;23099;42.636;23.198;2022-12-07T07:03:35;57.60;;;25.30;;
37205;SDS011;23099;42.636;23.198;2022-12-07T07:06:04;56.60;;;26.98;;
37205;SDS011;23099;42.636;23.198;2022-12-07T07:08:32;63.20;;;28.58;;
37205;SDS011;23099;42.636;23.198;2022-12-07T07:10:59;47.33;;;19.23;;
37205;SDS011;23099;42.636;23.198;2022-12-07T07:13:26;67.93;;;32.33;;
37205;SDS011;23099;42.636;23.198;2022-12-07T07:15:53;81.53;;;29.13;;
37205;SDS011;23099;42.636;23.198;2022-12-07T07:18:20;61.83;;;29.55;;
37205;SDS011;23099;42.636;23.198;2022-12-07T07:20:47;67.65;;;29.58;;
37205;SDS011;23099;42.636;23.198;2022-12-07T07:23:15;67.00;;;29.80;;
37205;SDS011;23099;42.636;23.198;2022-12-07T07:25:42;69.78;;;29.42;;
37205;SDS011;23099;42.636;23.198;2022-12-07T07:28:10;67.10;;;29.40;;
37205;SDS011;23099;42.636;23.198;2022-12-07T07:30:37;140.57;;;31.15;;
37205;SDS011;23099;42.636;23.198;2022-12-07T07:33:04;191.95;;;31.38;;
37205;SDS011;23099;42.636;23.198;2022-12-07T07:35:32;141.00;;;30.27;;
37205;SDS011;23099;42.636;23.198;2022-12-07T07:40:28;87.03;;;28.33;;
37205;SDS011;23099;42.636;23.198;2022-12-07T07:42:56;67.55;;;28.55;;
37205;SDS011;23099;42.636;23.198;2022-12-07T07:45:23;63.35;;;25.05;;
37205;SDS011;23099;42.636;23.198;2022-12-07T07:47:51;70.15;;;26.45;;
37205;SDS011;23099;42.636;23.198;2022-12-07T07:50:18;85.80;;;26.25;;
37205;SDS011;23099;42.636;23.198;2022-12-07T07:52:45;69.20;;;27.38;;
37205;SDS011;23099;42.636;23.198;2022-12-07T07:55:12;57.60;;;24.63;;
37205;SDS011;23099;42.636;23.198;2022-12-07T07:57:41;52.97;;;24.23;;
37205;SDS011;23099;42.636;23.198;2022-12-07T08:00:08;61.15;;;27.80;;
37205;SDS011;23099;42.636;23.198;2022-12-07T08:02:37;72.32;;;26.55;;
37205;SDS011;23099;42.636;23.198;2022-12-07T08:05:04;58.78;;;26.75;;
37205;SDS011;23099;42.636;23.198;2022-12-07T08:07:31;63.15;;;27.60;;
37205;SDS011;23099;42.636;23.198;2022-12-07T08:09:58;54.25;;;24.08;;
37205;SDS011;23099;42.636;23.198;2022-12-07T08:12:24;46.80;;;22.33;;
37205;SDS011;23099;42.636;23.198;2022-12-07T08:14:52;44.63;;;20.25;;
37205;SDS011;23099;42.636;23.198;2022-12-07T08:17:19;23.92;;;10.13;;
37205;SDS011;23099;42.636;23.198;2022-12-07T08:19:46;12.65;;;5.35;;
37205;SDS011;23099;42.636;23.198;2022-12-07T08:22:13;15.77;;;4.93;;
37205;SDS011;23099;42.636;23.198;2022-12-07T08:24:39;11.07;;;3.65;;
37205;SDS011;23099;42.636;23.198;2022-12-07T08:27:06;10.32;;;4.28;;
37205;SDS011;23099;42.636;23.198;2022-12-07T08:29:33;10.85;;;4.15;;
37205;SDS011;23099;42.636;23.198;2022-12-07T08:32:01;13.75;;;4.45;;
37205;SDS011;23099;42.636;23.198;2022-12-07T08:34:28;15.07;;;3.80;;
37205;SDS011;23099;42.636;23.198;2022-12-07T08:36:54;10.30;;;3.85;;
37205;SDS011;23099;42.636;23.198;2022-12-07T08:39:21;10.02;;;3.42;;
37205;SDS011;23099;42.636;23.198;2022-12-07T08:41:48;9.52;;;3.25;;
37205;SDS011;23099;42.636;23.198;2022-12-07T08:44:14;15.07;;;4.30;;
37205;SDS011;23099;42.636;23.198;2022-12-07T08:46:41;10.57;;;4.05;;
37205;SDS011;23099;42.636;23.198;2022-12-07T08:49:14;11.50;;;4.05;;
37205;SDS011;23099;42.636;23.198;2022-12-07T08:51:44;11.45;;;4.00;;
37205;SDS011;23099;42.636;23.198;2022-12-07T08:54:12;9.32;;;3.65;;
37205;SDS011;23099;42.636;23.198;2022-12-07T08:56:42;6.88;;;2.83;;
37205;SDS011;23099;42.636;23.198;2022-12-07T08:59:10;11.10;;;3.57;;
37205;SDS011;23099;42.636;23.198;2022-12-07T09:01:39;8.52;;;2.75;;
37205;SDS011;23099;42.636;23.198;2022-12-07T09:04:05;10.93;;;3.63;;
37205;SDS011;23099;42.636;23.198;2022-12-07T09:06:34;11.48;;;2.83;;
37205;SDS011;23099;42.636;23.198;2022-12-07T09:09:01;8.77;;;3.20;;
37205;SDS011;23099;42.636;23.198;2022-12-07T09:11:29;11.68;;;2.95;;
37205;SDS011;23099;42.636;23.198;2022-12-07T09:13:56;8.98;;;3.17;;
37205;SDS011;23099;42.636;23.198;2022-12-07T09:16:23;8.55;;;3.08;;
37205;SDS011;23099;42.636;23.198;2022-12-07T09:18:49;8.23;;;3.17;;
37205;SDS011;23099;42.636;23.198;2022-12-07T09:21:16;7.90;;;2.72;;
37205;SDS011;23099;42.636;23.198;2022-12-07T09:23:44;9.27;;;3.30;;
37205;SDS011;23099;42.636;23.198;2022-12-07T09:26:11;11.45;;;3.47;;
37205;SDS011;23099;42.636;23.198;2022-12-07T09:28:38;11.38;;;3.55;;
37205;SDS011;23099;42.636;23.198;2022-12-07T09:31:05;10.48;;;3.25;;
37205;SDS011;23099;42.636;23.198;2022-12-07T09:33:32;11.90;;;3.67;;
37205;SDS011;23099;42.636;23.198;2022-12-07T09:35:58;10.18;;;4.10;;
37205;SDS011;23099;42.636;23.198;2022-12-07T09:38:25;10.98;;;2.90;;
37205;SDS011;23099;42.636;23.198;2022-12-07T09:40:53;11.43;;;3.10;;
37205;SDS011;23099;42.636;23.198;2022-12-07T09:43:21;12.65;;;3.10;;
37205;SDS011;23099;42.636;23.198;2022-12-07T09:45:50;10.88;;;2.92;;
37205;SDS011;23099;42.636;23.198;2022-12-07T09:48:20;12.82;;;2.95;;
37205;SDS011;23099;42.636;23.198;2022-12-07T09:50:49;13.60;;;3.78;;
37205;SDS011;23099;42.636;23.198;2022-12-07T09:55:47;8.73;;;2.67;;
37205;SDS011;23099;42.636;23.198;2022-12-07T09:58:19;10.50;;;2.72;;
37205;SDS011;23099;42.636;23.198;2022-12-07T10:00:48;8.32;;;2.78;;
37205;SDS011;23099;42.636;23.198;2022-12-07T10:03:15;12.27;;;3.17;;
37205;SDS011;23099;42.636;23.198;2022-12-07T10:05:42;6.05;;;2.50;;
37205;SDS011;23099;42.636;23.198;2022-12-07T10:08:11;8.05;;;2.58;;
37205;SDS011;23099;42.636;23.198;2022-12-07T10:10:40;9.13;;;2.53;;
37205;SDS011;23099;42.636;23.198;2022-12-07T10:13:08;10.30;;;2.27;;
37205;SDS011;23099;42.636;23.198;2022-12-07T10:15:45;8.70;;;2.30;;
37205;SDS011;23099;42.636;23.198;2022-12-07T10:18:24;10.07;;;2.70;;
37205;SDS011;23099;42.636;23.198;2022-12-07T10:23:40;8.32;;;2.20;;
37205;SDS011;23099;42.636;23.198;2022-12-07T10:26:26;7.55;;;2.22;;
37205;SDS011;23099;42.636;23.198;2022-12-07T10:28:56;12.85;;;3.15;;
37205;SDS011;23099;42.636;23.198;2022-12-07T10:31:27;13.52;;;3.70;;
37205;SDS011;23099;42.636;23.198;2022-12-07T10:33:55;9.18;;;3.17;;
37205;SDS011;23099;42.636;23.198;2022-12-07T10:36:24;8.73;;;2.65;;
37205;SDS011;23099;42.636;23.198;2022-12-07T10:38:53;9.65;;;3.28;;
37205;SDS011;23099;42.636;23.198;2022-12-07T10:41:27;9.85;;;3.28;;
37205;SDS011;23099;42.636;23.198;2022-12-07T10:43:55;8.93;;;3.22;;
37205;SDS011;23099;42.636;23.198;2022-12-07T10:52:21;15.10;;;4.47;;
37205;SDS011;23099;42.636;23.198;2022-12-07T10:55:04;10.07;;;3.22;;
37205;SDS011;23099;42.636;23.198;2022-12-07T10:57:41;13.70;;;3.88;;
37205;SDS011;23099;42.636;23.198;2022-12-07T11:00:20;10.32;;;3.22;;
37205;SDS011;23099;42.636;23.198;2022-12-07T11:05:49;10.98;;;2.90;;
37205;SDS011;23099;42.636;23.198;2022-12-07T11:08:23;9.88;;;3.40;;
37205;SDS011;23099;42.636;23.198;2022-12-07T11:11:06;8.20;;;2.78;;
37205;SDS011;23099;42.636;23.198;2022-12-07T11:13:40;10.65;;;2.90;;
37205;SDS011;23099;42.636;23.198;2022-12-07T11:19:15;11.18;;;3.20;;
37205;SDS011;23099;42.636;23.198;2022-12-07T11:21:56;14.80;;;3.00;;
37205;SDS011;23099;42.636;23.198;2022-12-07T11:24:26;9.73;;;3.00;;
37205;SDS011;23099;42.636;23.198;2022-12-07T11:27:10;12.68;;;3.35;;
37205;SDS011;23099;42.636;23.198;2022-12-07T11:30:00;8.77;;;2.10;;
37205;SDS011;23099;42.636;23.198;2022-12-07T11:32:44;15.73;;;3.70;;
37205;SDS011;23099;42.636;23.198;2022-12-07T11:35:22;10.02;;;2.13;;
37205;SDS011;23099;42.636;23.198;2022-12-07T11:37:57;11.70;;;3.10;;
37205;SDS011;23099;42.636;23.198;2022-12-07T11:40:28;8.85;;;2.33;;
37205;SDS011;23099;42.636;23.198;2022-12-07T11:43:01;9.73;;;2.63;;
37205;SDS011;23099;42.636;23.198;2022-12-07T11:45:33;7.97;;;2.53;;
37205;SDS011;23099;42.636;23.198;2022-12-07T11:48:03;8.32;;;2.10;;
37205;SDS011;23099;42.636;23.198;2022-12-07T11:50:38;11.07;;;3.70;;
37205;SDS011;23099;42.636;23.198;2022-12-07T11:53:10;11.43;;;3.25;;
37205;SDS011;23099;42.636;23.198;2022-12-07T11:55:43;10.55;;;3.83;;
37205;SDS011;23099;42.636;23.198;2022-12-07T11:58:22;13.10;;;3.72;;
37205;SDS011;23099;42.636;23.198;2022-12-07T12:01:01;13.82;;;4.00;;
37205;SDS011;23099;42.636;23.198;2022-12-07T12:03:40;12.60;;;3.60;;
37205;SDS011;23099;42.636;23.198;2022-12-07T12:06:11;17.70;;;4.60;;
37205;SDS011;23099;42.636;23.198;2022-12-07T12:08:39;13.00;;;3.30;;
37205;SDS011;23099;42.636;23.198;2022-12-07T12:11:13;7.25;;;2.30;;
37205;SDS011;23099;42.636;23.198;2022-12-07T12:17:06;11.93;;;2.95;;
37205;SDS011;23099;42.636;23.198;2022-12-07T12:19:56;10.77;;;3.30;;
37205;SDS011;23099;42.636;23.198;2022-12-07T12:22:32;11.73;;;3.67;;
37205;SDS011;23099;42.636;23.198;2022-12-07T12:25:04;13.77;;;5.32;;
37205;SDS011;23099;42.636;23.198;2022-12-07T12:27:34;10.20;;;4.40;;
37205;SDS011;23099;42.636;23.198;2022-12-07T12:30:04;14.82;;;5.93;;
37205;SDS011;23099;42.636;23.198;2022-12-07T12:32:36;20.98;;;6.40;;
37205;SDS011;23099;42.636;23.198;2022-12-07T12:35:22;18.58;;;6.93;;
37205;SDS011;23099;42.636;23.198;2022-12-07T12:38:01;17.33;;;6.75;;
37205;SDS011;23099;42.636;23.198;2022-12-07T12:40:52;12.63;;;3.67;;
37205;SDS011;23099;42.636;23.198;2022-12-07T12:55:15;8.93;;;2.75;;
37205;SDS011;23099;42.636;23.198;2022-12-07T12:57:46;8.70;;;2.97;;
37205;SDS011;23099;42.636;23.198;2022-12-07T13:00:17;10.13;;;2.87;;
37205;SDS011;23099;42.636;23.198;2022-12-07T13:02:49;8.45;;;2.83;;
37205;SDS011;23099;42.636;23.198;2022-12-07T13:05:18;8.70;;;2.55;;
37205;SDS011;23099;42.636;23.198;2022-12-07T13:07:54;11.57;;;3.22;;
37205;SDS011;23099;42.636;23.198;2022-12-07T13:10:28;10.52;;;3.28;;
37205;SDS011;23099;42.636;23.198;2022-12-07T13:25:07;12.05;;;3.03;;
37205;SDS011;23099;42.636;23.198;2022-12-07T13:27:39;12.05;;;2.95;;
37205;SDS011;23099;42.636;23.198;2022-12-07T13:30:09;9.52;;;3.10;;
37205;SDS011;23099;42.636;23.198;2022-12-07T13:32:41;9.38;;;3.08;;
37205;SDS011;23099;42.636;23.198;2022-12-07T13:35:27;13.68;;;3.53;;
37205;SDS011;23099;42.636;23.198;2022-12-07T13:37:58;7.53;;;3.05;;
37205;SDS011;23099;42.636;23.198;2022-12-07T13:40:27;10.52;;;2.97;;
37205;SDS011;23099;42.636;23.198;2022-12-07T13:42:59;10.88;;;2.80;;
37205;SDS011;23099;42.636;23.198;2022-12-07T13:45:27;11.75;;;3.15;;
37205;SDS011;23099;42.636;23.198;2022-12-07T13:48:15;6.65;;;2.00;;
37205;SDS011;23099;42.636;23.198;2022-12-07T13:50:51;8.25;;;2.58;;
37205;SDS011;23099;42.636;23.198;2022-12-07T13:53:19;12.70;;;3.33;;
37205;SDS011;23099;42.636;23.198;2022-12-07T13:55:46;8.25;;;2.83;;
37205;SDS011;23099;42.636;23.198;2022-12-07T13:58:15;9.83;;;2.63;;
37205;SDS011;23099;42.636;23.198;2022-12-07T14:00:42;9.43;;;2.58;;
37205;SDS011;23099;42.636;23.198;2022-12-07T14:03:25;10.60;;;3.10;;
37205;SDS011;23099;42.636;23.198;2022-12-07T14:06:06;13.00;;;3.97;;
37205;SDS011;23099;42.636;23.198;2022-12-07T14:08:40;8.85;;;3.00;;
37205;SDS011;23099;42.636;23.198;2022-12-07T14:11:07;8.77;;;3.15;;
37205;SDS011;23099;42.636;23.198;2022-12-07T14:13:44;8.82;;;3.22;;
37205;SDS011;23099;42.636;23.198;2022-12-07T14:16:20;22.00;;;8.10;;
37205;SDS011;23099;42.636;23.198;2022-12-07T14:18:51;10.57;;;3.53;;
37205;SDS011;23099;42.636;23.198;2022-12-07T14:21:19;12.70;;;4.28;;
37205;SDS011;23099;42.636;23.198;2022-12-07T14:24:02;12.70;;;8.43;;
37205;SDS011;23099;42.636;23.198;2022-12-07T14:26:37;10.73;;;4.93;;
37205;SDS011;23099;42.636;23.198;2022-12-07T14:29:27;10.07;;;5.47;;
37205;SDS011;23099;42.636;23.198;2022-12-07T14:31:58;10.77;;;3.38;;
37205;SDS011;23099;42.636;23.198;2022-12-07T14:34:34;14.45;;;5.10;;
37205;SDS011;23099;42.636;23.198;2022-12-07T14:37:01;12.30;;;4.45;;
37205;SDS011;23099;42.636;23.198;2022-12-07T14:39:28;9.57;;;4.68;;
37205;SDS011;23099;42.636;23.198;2022-12-07T14:41:55;11.90;;;4.60;;
37205;SDS011;23099;42.636;23.198;2022-12-07T14:44:23;12.65;;;5.07;;
37205;SDS011;23099;42.636;23.198;2022-12-07T14:46:50;12.50;;;4.68;;
37205;SDS011;23099;42.636;23.198;2022-12-07T14:49:17;16.00;;;6.90;;
37205;SDS011;23099;42.636;23.198;2022-12-07T14:51:44;19.52;;;7.28;;
37205;SDS011;23099;42.636;23.198;2022-12-07T14:54:14;18.83;;;7.32;;
37205;SDS011;23099;42.636;23.198;2022-12-07T14:56:43;14.48;;;6.32;;
37205;SDS011;23099;42.636;23.198;2022-12-07T14:59:11;12.68;;;5.10;;
37205;SDS011;23099;42.636;23.198;2022-12-07T15:01:39;15.05;;;6.18;;
37205;SDS011;23099;42.636;23.198;2022-12-07T15:04:06;12.70;;;5.10;;
37205;SDS011;23099;42.636;23.198;2022-12-07T15:06:33;17.92;;;6.75;;
37205;SDS011;23099;42.636;23.198;2022-12-07T15:09:00;11.77;;;4.43;;
37205;SDS011;23099;42.636;23.198;2022-12-07T15:11:27;13.32;;;5.75;;
37205;SDS011;23099;42.636;23.198;2022-12-07T15:13:54;15.93;;;6.45;;
37205;SDS011;23099;42.636;23.198;2022-12-07T15:16:38;17.10;;;6.70;;
37205;SDS011;23099;42.636;23.198;2022-12-07T15:19:10;15.85;;;6.30;;
37205;SDS011;23099;42.636;23.198;2022-12-07T15:21:39;9.77;;;3.42;;
37205;SDS011;23099;42.636;23.198;2022-12-07T15:24:07;19.67;;;7.68;;
37205;SDS011;23099;42.636;23.198;2022-12-07T15:26:34;15.35;;;5.22;;
37205;SDS011;23099;42.636;23.198;2022-12-07T15:29:01;12.63;;;3.92;;
37205;SDS011;23099;42.636;23.198;2022-12-07T15:31:28;11.18;;;5.00;;
37205;SDS011;23099;42.636;23.198;2022-12-07T15:33:56;15.02;;;5.93;;
37205;SDS011;23099;42.636;23.198;2022-12-07T15:36:24;13.75;;;5.50;;